Time;durP1;ratioP1;P1;durP2;ratioP2;P2;SDS_P1;SDS_P2;PMS_P1;PMS_P2;Temp;Humidity;BMP_temperature;BMP_pressure;BME280_temperature;BME280_humidity;BME280_pressure;Samples;Min_cycle;Max_cycle;Signal;HPM_P1;HPM_P2
2022/11/01 00:01:46;;;;;;;5.30;3.47;;;17.00;72.00;;;;;;5031743;28;20479;-73
2022/11/01 00:04:12;;;;;;;5.18;3.17;;;17.00;72.00;;;;;;5031093;28;20059;-73
2022/11/01 00:06:39;;;;;;;4.93;3.55;;;17.00;72.00;;;;;;5031591;28;20064;-73
2022/11/01 00:09:06;;;;;;;4.72;3.38;;;17.00;72.00;;;;;;5032734;28;20084;-73
2022/11/01 00:11:34;;;;;;;6.10;3.42;;;17.00;72.00;;;;;;5063672;28;20057;-73
2022/11/01 00:14:01;;;;;;;4.90;3.60;;;17.00;72.00;;;;;;5031517;28;20053;-73
2022/11/01 00:16:28;;;;;;;5.10;3.65;;;17.00;72.00;;;;;;5031383;28;20057;-73
2022/11/01 00:18:55;;;;;;;5.30;3.45;;;17.00;72.10;;;;;;5031159;28;20505;-73
2022/11/01 00:21:21;;;;;;;4.63;3.47;;;17.00;72.10;;;;;;5012773;28;20068;-73
2022/11/01 00:23:48;;;;;;;4.95;3.10;;;17.00;72.10;;;;;;5044686;28;20060;-73
2022/11/01 00:26:17;;;;;;;4.93;3.58;;;17.00;72.10;;;;;;5044826;28;20425;-73
2022/11/01 00:28:45;;;;;;;4.30;3.42;;;17.00;72.10;;;;;;5011641;28;20144;-73
2022/11/01 00:31:12;;;;;;;4.40;3.22;;;17.00;72.10;;;;;;5030906;28;20057;-73
2022/11/01 00:33:39;;;;;;;3.78;2.97;;;17.00;72.10;;;;;;5031217;28;20061;-73
2022/11/01 00:36:06;;;;;;;4.95;3.35;;;17.00;72.10;;;;;;5030837;28;20453;-73
2022/11/01 00:38:33;;;;;;;5.68;3.38;;;17.00;72.10;;;;;;5030659;28;20046;-73
2022/11/01 00:41:01;;;;;;;5.63;3.38;;;17.00;72.10;;;;;;5030949;28;20057;-73
2022/11/01 00:43:28;;;;;;;4.93;3.42;;;17.00;72.10;;;;;;5031168;28;20061;-73
2022/11/01 00:45:56;;;;;;;5.63;3.13;;;16.90;72.10;;;;;;5031896;28;20410;-73
2022/11/01 00:48:22;;;;;;;5.32;3.30;;;16.90;72.10;;;;;;5030753;28;20051;-73
2022/11/01 00:50:49;;;;;;;4.38;3.35;;;16.90;72.10;;;;;;5030603;28;20061;-73
2022/11/01 00:53:16;;;;;;;5.10;2.92;;;16.90;72.10;;;;;;5032217;28;20128;-73
2022/11/01 00:55:43;;;;;;;5.97;3.53;;;16.90;72.10;;;;;;5030880;28;20478;-73
2022/11/01 00:58:10;;;;;;;4.15;2.97;;;16.90;72.10;;;;;;5030760;28;20050;-72
2022/11/01 01:00:36;;;;;;;4.50;3.38;;;16.90;72.10;;;;;;5030440;28;20049;-73
2022/11/01 01:03:05;;;;;;;4.28;3.15;;;16.90;72.20;;;;;;5032025;28;20275;-73
2022/11/01 01:05:31;;;;;;;4.30;3.30;;;16.90;72.20;;;;;;5030699;28;20050;-73
2022/11/01 01:07:58;;;;;;;4.30;3.20;;;16.90;72.20;;;;;;5030648;28;20151;-73
2022/11/01 01:10:25;;;;;;;5.43;3.20;;;16.90;72.20;;;;;;5030471;28;20055;-72
2022/11/01 01:12:52;;;;;;;3.70;3.20;;;16.90;72.20;;;;;;5030625;28;20059;-72
2022/11/01 01:15:19;;;;;;;4.78;3.30;;;16.90;72.20;;;;;;5030703;28;20061;-73
2022/11/01 01:17:45;;;;;;;4.35;3.40;;;16.90;72.20;;;;;;5031758;28;20059;-72
2022/11/01 01:20:14;;;;;;;5.53;3.15;;;16.90;72.20;;;;;;5030067;28;20055;-72
2022/11/01 01:22:41;;;;;;;4.53;3.28;;;16.90;72.20;;;;;;5030298;28;20073;-73
2022/11/01 01:25:09;;;;;;;5.55;3.50;;;16.90;72.20;;;;;;5030412;28;20141;-72
2022/11/01 01:27:35;;;;;;;5.22;3.33;;;16.90;72.20;;;;;;5030347;28;20059;-72
2022/11/01 01:30:02;;;;;;;4.45;3.40;;;16.90;72.20;;;;;;5030203;28;20057;-72
2022/11/01 01:32:29;;;;;;;6.32;3.13;;;16.90;72.20;;;;;;5030300;28;20079;-73
2022/11/01 01:34:55;;;;;;;4.70;3.03;;;16.90;72.20;;;;;;5030816;28;20053;-72
2022/11/01 01:37:23;;;;;;;4.32;3.20;;;16.90;72.20;;;;;;5030575;28;20413;-72
2022/11/01 01:39:50;;;;;;;4.70;3.10;;;16.90;72.20;;;;;;5032333;28;20046;-72
2022/11/01 01:42:20;;;;;;;3.97;3.40;;;16.90;72.20;;;;;;5033908;28;20060;-73
2022/11/01 01:45:21;;;;;;;3.97;3.05;;;16.90;72.20;;;;;;5034417;28;20482;-72
2022/11/01 01:47:50;;;;;;;4.13;3.20;;;16.90;72.10;;;;;;5033943;28;20053;-72
2022/11/01 01:50:19;;;;;;;3.85;2.90;;;16.90;72.20;;;;;;5033528;28;20049;-72
2022/11/01 01:52:48;;;;;;;3.83;3.13;;;16.90;72.20;;;;;;5034214;28;20057;-72
2022/11/01 01:55:16;;;;;;;4.32;3.08;;;16.90;72.20;;;;;;5034224;28;20060;-72
2022/11/01 01:57:42;;;;;;;4.00;3.25;;;16.90;72.20;;;;;;5034057;28;20053;-72
2022/11/01 02:00:11;;;;;;;4.65;3.50;;;16.90;72.20;;;;;;5033221;28;20053;-72
2022/11/01 02:02:37;;;;;;;6.78;3.55;;;16.90;72.20;;;;;;5033725;28;20049;-72
2022/11/01 02:05:07;;;;;;;3.97;3.28;;;16.90;72.20;;;;;;5033694;28;20064;-72
2022/11/01 02:07:33;;;;;;;3.00;2.70;;;16.90;72.20;;;;;;5034046;28;20049;-72
2022/11/01 02:10:01;;;;;;;5.15;3.17;;;16.90;72.20;;;;;;5033267;28;20049;-72
2022/11/01 02:12:32;;;;;;;4.20;3.20;;;16.90;72.20;;;;;;5033962;28;20080;-72
2022/11/01 02:14:59;;;;;;;4.32;3.17;;;16.90;72.20;;;;;;5033767;28;20624;-72
2022/11/01 02:17:27;;;;;;;5.35;3.05;;;16.90;72.20;;;;;;5033761;28;20059;-72
2022/11/01 02:20:09;;;;;;;4.40;3.10;;;16.90;72.20;;;;;;5033186;28;20068;-75
2022/11/01 02:22:49;;;;;;;4.45;3.20;;;16.90;72.10;;;;;;5033594;28;20061;-72
2022/11/01 02:25:30;;;;;;;4.40;3.20;;;16.90;72.20;;;;;;5033670;28;20061;-72
2022/11/01 02:28:08;;;;;;;6.10;3.20;;;16.90;72.20;;;;;;5033320;28;20053;-72
2022/11/01 02:30:39;;;;;;;3.78;2.72;;;16.90;72.20;;;;;;5032939;28;20050;-72
2022/11/01 02:33:13;;;;;;;4.07;3.28;;;16.80;72.20;;;;;;5033467;28;20068;-72
2022/11/01 02:35:43;;;;;;;5.00;3.00;;;16.80;72.20;;;;;;5033698;28;20064;-72
2022/11/01 02:38:12;;;;;;;4.03;2.80;;;16.80;72.20;;;;;;5033416;28;20479;-72
2022/11/01 02:40:43;;;;;;;4.03;2.90;;;16.80;72.20;;;;;;5032588;28;20045;-72
2022/11/01 02:43:12;;;;;;;4.70;3.20;;;16.80;72.20;;;;;;5033104;28;20067;-73
2022/11/01 02:45:40;;;;;;;4.15;3.22;;;16.80;72.20;;;;;;5033152;28;20057;-73
2022/11/01 02:48:08;;;;;;;4.95;3.03;;;16.80;72.20;;;;;;5033283;28;20483;-73
2022/11/01 02:50:37;;;;;;;3.80;3.22;;;16.80;72.20;;;;;;5031590;28;20054;-73
2022/11/01 02:53:03;;;;;;;4.07;2.88;;;16.80;72.20;;;;;;5032992;28;20060;-72
2022/11/01 02:55:32;;;;;;;3.50;3.00;;;16.80;72.20;;;;;;5032668;28;20059;-72
2022/11/01 02:58:00;;;;;;;5.22;3.03;;;16.80;72.20;;;;;;5033183;28;20111;-72
2022/11/01 03:00:28;;;;;;;4.65;2.95;;;16.80;72.20;;;;;;5032367;28;20060;-72
2022/11/01 03:02:57;;;;;;;3.15;2.53;;;16.80;72.20;;;;;;5032761;28;20053;-72
2022/11/01 03:05:26;;;;;;;3.55;2.80;;;16.80;72.20;;;;;;5032781;28;20493;-72
2022/11/01 03:07:56;;;;;;;5.18;3.05;;;16.80;72.20;;;;;;5032526;28;20522;-72
2022/11/01 03:10:24;;;;;;;5.90;3.13;;;16.80;72.20;;;;;;5032454;28;20060;-72
2022/11/01 03:12:53;;;;;;;4.47;3.15;;;16.80;72.20;;;;;;5032416;28;20057;-72
2022/11/01 03:15:21;;;;;;;5.28;3.00;;;16.80;72.20;;;;;;5032545;28;20064;-72
2022/11/01 03:17:50;;;;;;;3.20;2.70;;;16.80;72.20;;;;;;5032569;28;20064;-72
2022/11/01 03:20:19;;;;;;;3.55;2.88;;;16.80;72.20;;;;;;5031936;28;20115;-72
2022/11/01 03:22:49;;;;;;;3.90;2.63;;;16.80;72.20;;;;;;5032469;28;20059;-73
2022/11/01 03:28:02;;;;;;;3.78;2.90;;;16.80;72.20;;;;;;5033515;28;20045;-72
2022/11/01 03:30:29;;;;;;;3.97;2.88;;;16.80;72.20;;;;;;5032115;28;20057;-72
2022/11/01 03:32:56;;;;;;;3.35;2.65;;;16.80;72.20;;;;;;5032017;28;20068;-72
2022/11/01 03:35:24;;;;;;;3.92;3.08;;;16.80;72.20;;;;;;5032340;28;20085;-72
2022/11/01 03:37:54;;;;;;;4.35;2.92;;;16.80;72.20;;;;;;5032315;28;20056;-72
2022/11/01 03:40:21;;;;;;;3.67;2.95;;;16.80;72.20;;;;;;5031537;28;20055;-73
2022/11/01 03:42:49;;;;;;;5.03;3.10;;;16.80;72.20;;;;;;5031918;28;20379;-73
2022/11/01 03:45:17;;;;;;;4.53;3.00;;;16.80;72.20;;;;;;5032303;28;20058;-73
2022/11/01 03:47:43;;;;;;;4.65;2.95;;;16.80;72.20;;;;;;5032286;28;20136;-73
2022/11/01 03:50:14;;;;;;;5.28;3.17;;;16.80;72.20;;;;;;5031470;28;20414;-73
2022/11/01 03:52:41;;;;;;;3.05;2.42;;;16.80;72.10;;;;;;5031750;28;20049;-73
2022/11/01 03:55:17;;;;;;;3.35;2.80;;;16.80;72.10;;;;;;5032953;28;20049;-73
2022/11/01 03:57:44;;;;;;;4.25;3.10;;;16.80;72.10;;;;;;5032158;28;20054;-73
2022/11/01 04:00:14;;;;;;;4.28;2.97;;;16.80;72.20;;;;;;5031322;28;20052;-72
2022/11/01 04:02:40;;;;;;;3.78;2.85;;;16.80;72.10;;;;;;5031567;28;20084;-73
2022/11/01 04:05:08;;;;;;;3.65;2.88;;;16.80;72.10;;;;;;5031693;28;20053;-72
2022/11/01 04:07:34;;;;;;;3.53;2.92;;;16.80;72.10;;;;;;5031466;28;20128;-73
2022/11/01 04:10:01;;;;;;;4.18;2.90;;;16.80;72.10;;;;;;5032081;28;20056;-72
2022/11/01 04:12:29;;;;;;;3.95;3.20;;;16.80;72.10;;;;;;5031283;28;20087;-73
2022/11/01 04:20:49;;;;;;;3.13;2.83;;;16.80;72.10;;;;;;4974049;28;20069;-72
2022/11/01 04:23:19;;;;;;;3.00;2.60;;;16.80;72.20;;;;;;4997420;28;20054;-73
2022/11/01 04:25:46;;;;;;;3.00;2.45;;;16.80;72.20;;;;;;5011628;28;20054;-73
2022/11/01 04:28:14;;;;;;;4.20;2.78;;;16.80;72.20;;;;;;5011712;28;20064;-73
2022/11/01 04:30:41;;;;;;;4.70;2.95;;;16.80;72.20;;;;;;5021563;28;20063;-73
2022/11/01 04:33:08;;;;;;;2.97;2.63;;;16.80;72.20;;;;;;5032289;28;20416;-72
2022/11/01 04:35:36;;;;;;;4.18;2.80;;;16.70;72.10;;;;;;5031157;28;20049;-73
2022/11/01 04:38:02;;;;;;;3.15;2.70;;;16.80;72.20;;;;;;5032362;28;20406;-73
2022/11/01 04:40:29;;;;;;;3.25;2.78;;;16.70;72.10;;;;;;5030245;28;20055;-73
2022/11/01 04:42:56;;;;;;;3.80;2.97;;;16.80;72.10;;;;;;5030370;28;20140;-72
2022/11/01 04:45:24;;;;;;;3.42;2.78;;;16.80;72.20;;;;;;5030974;28;20060;-73
2022/11/01 04:48:01;;;;;;;3.72;2.70;;;16.80;72.10;;;;;;5031069;28;20057;-73
2022/11/01 04:50:27;;;;;;;3.10;2.60;;;16.80;72.10;;;;;;5030725;28;20065;-73
2022/11/01 04:52:54;;;;;;;3.28;2.58;;;16.80;72.20;;;;;;5031042;28;20057;-73
2022/11/01 04:55:21;;;;;;;3.25;2.70;;;16.80;72.20;;;;;;5030731;28;20433;-73
2022/11/01 04:57:47;;;;;;;4.13;2.80;;;16.80;72.20;;;;;;5032064;28;20056;-73
2022/11/01 05:00:15;;;;;;;3.40;2.80;;;16.80;74.30;;;;;;5030303;28;20045;-73
2022/11/01 05:02:43;;;;;;;3.83;2.78;;;16.70;72.10;;;;;;5030934;28;20063;-73
2022/11/01 05:05:10;;;;;;;4.18;2.70;;;16.80;72.10;;;;;;5031044;28;20524;-73
2022/11/01 05:07:37;;;;;;;3.45;2.72;;;16.70;72.10;;;;;;5030854;28;20065;-72
2022/11/01 05:10:04;;;;;;;3.85;2.70;;;16.80;72.20;;;;;;5030826;28;20075;-72
2022/11/01 05:12:31;;;;;;;3.17;2.55;;;16.70;72.20;;;;;;5030940;28;20667;-72
2022/11/01 05:14:57;;;;;;;3.55;2.90;;;16.70;72.10;;;;;;5033623;28;20544;-72
2022/11/01 05:17:24;;;;;;;3.35;2.70;;;16.80;72.20;;;;;;5034989;28;20063;-72
2022/11/01 05:19:52;;;;;;;3.95;2.85;;;16.80;72.20;;;;;;5034516;28;20050;-72
2022/11/01 05:22:19;;;;;;;3.03;2.45;;;16.80;72.20;;;;;;5034072;28;20653;-72
2022/11/01 05:24:46;;;;;;;3.70;2.70;;;16.70;72.60;;;;;;5035133;28;20294;-72
2022/11/01 05:27:12;;;;;;;3.78;2.60;;;16.80;72.20;;;;;;5035070;28;20050;-72
2022/11/01 05:29:39;;;;;;;2.90;2.47;;;16.70;72.10;;;;;;5034747;28;20140;-72
2022/11/01 05:32:06;;;;;;;5.00;2.72;;;16.70;72.10;;;;;;5034797;28;20077;-72
2022/11/01 05:34:32;;;;;;;4.53;2.58;;;16.70;72.10;;;;;;5034713;28;20483;-72
2022/11/01 05:37:01;;;;;;;3.28;2.45;;;16.70;72.20;;;;;;5034872;28;20065;-72
2022/11/01 05:39:28;;;;;;;3.00;2.55;;;16.70;72.10;;;;;;5034474;28;20064;-72
2022/11/01 05:41:55;;;;;;;4.85;2.95;;;16.70;72.20;;;;;;5034695;28;20053;-72
2022/11/01 05:44:21;;;;;;;3.55;2.50;;;16.70;72.20;;;;;;5034442;28;20136;-72
2022/11/01 05:46:48;;;;;;;3.45;2.58;;;16.70;72.10;;;;;;5034720;28;20055;-72
2022/11/01 05:49:15;;;;;;;3.95;2.85;;;16.70;72.10;;;;;;5034476;28;20057;-72
2022/11/01 05:51:41;;;;;;;3.20;2.35;;;16.70;72.10;;;;;;5034215;28;20057;-72
2022/11/01 05:54:10;;;;;;;4.05;2.63;;;16.70;72.10;;;;;;5034199;28;20053;-72
2022/11/01 05:56:36;;;;;;;3.58;2.40;;;16.70;72.20;;;;;;5050580;28;20067;-72
2022/11/01 05:59:03;;;;;;;2.72;2.42;;;16.70;72.10;;;;;;5034172;28;20057;-72
2022/11/01 06:01:30;;;;;;;3.58;2.60;;;16.70;72.10;;;;;;5033548;28;20064;-72
2022/11/01 06:04:00;;;;;;;2.83;2.38;;;16.70;72.10;;;;;;5034191;28;20063;-72
2022/11/01 06:06:27;;;;;;;3.40;2.83;;;16.70;72.10;;;;;;5034418;28;20059;-72
2022/11/01 06:08:55;;;;;;;3.03;2.42;;;16.70;72.10;;;;;;5033935;28;20517;-72
2022/11/01 06:11:23;;;;;;;4.22;2.35;;;16.70;72.10;;;;;;5035060;28;20065;-72
2022/11/01 06:13:53;;;;;;;3.60;2.50;;;16.70;72.10;;;;;;5033796;28;20057;-72
2022/11/01 06:16:20;;;;;;;3.30;2.83;;;16.70;72.10;;;;;;5034431;28;20053;-72
2022/11/01 06:18:46;;;;;;;2.63;2.20;;;16.70;72.10;;;;;;5033846;28;20061;-72
2022/11/01 06:21:13;;;;;;;3.38;2.60;;;16.80;72.20;;;;;;5033458;28;20060;-72
2022/11/01 06:23:40;;;;;;;3.22;2.55;;;16.70;72.10;;;;;;5036268;28;20053;-72
2022/11/01 06:26:06;;;;;;;2.90;2.40;;;16.70;72.10;;;;;;5042795;28;20061;-72
2022/11/01 06:28:34;;;;;;;3.10;2.78;;;16.70;72.10;;;;;;5042070;28;20057;-72
2022/11/01 06:31:01;;;;;;;2.85;2.35;;;16.70;72.10;;;;;;5041027;28;20190;-72
2022/11/01 06:33:29;;;;;;;4.07;2.60;;;16.70;72.70;;;;;;5043398;28;20049;-72
2022/11/01 06:35:56;;;;;;;3.40;2.47;;;16.70;72.10;;;;;;5041816;28;20045;-72
2022/11/01 06:38:23;;;;;;;3.70;2.83;;;16.70;72.10;;;;;;5042851;28;20123;-72
2022/11/01 06:40:49;;;;;;;3.10;2.30;;;16.70;72.10;;;;;;5040873;28;20049;-73
2022/11/01 06:43:16;;;;;;;3.08;2.33;;;16.70;72.10;;;;;;5043665;28;20413;-73
2022/11/01 06:45:44;;;;;;;2.90;2.33;;;16.70;72.10;;;;;;5043472;28;20048;-72
2022/11/01 06:48:11;;;;;;;2.88;2.58;;;16.70;72.10;;;;;;5042085;28;20059;-72
2022/11/01 06:50:37;;;;;;;2.70;2.15;;;16.70;72.10;;;;;;5039382;28;20414;-72
2022/11/01 06:53:04;;;;;;;2.97;2.40;;;16.80;72.20;;;;;;5042651;28;20045;-73
2022/11/01 06:55:31;;;;;;;2.63;2.28;;;16.70;72.10;;;;;;5042896;28;20410;-73
2022/11/01 06:57:58;;;;;;;3.28;2.30;;;16.70;72.10;;;;;;5032768;28;20056;-73
2022/11/01 07:00:25;;;;;;;2.85;2.50;;;16.70;72.10;;;;;;5032298;28;20042;-73
2022/11/01 07:02:59;;;;;;;3.55;2.60;;;16.70;72.10;;;;;;5032690;28;20479;-72
2022/11/01 07:05:26;;;;;;;2.60;2.40;;;16.70;72.10;;;;;;5031331;28;20041;-72
2022/11/01 07:07:53;;;;;;;3.78;2.38;;;16.70;72.10;;;;;;5033840;28;20444;-73
2022/11/01 07:10:20;;;;;;;3.67;2.55;;;16.70;72.10;;;;;;5031871;28;20049;-73
2022/11/01 07:12:46;;;;;;;3.83;2.42;;;16.70;72.10;;;;;;5032578;28;20057;-73
2022/11/01 07:15:13;;;;;;;2.67;2.13;;;16.70;72.00;;;;;;5033692;28;20128;-73
2022/11/01 07:17:40;;;;;;;4.78;2.20;;;16.80;72.00;;;;;;5032303;28;20049;-73
2022/11/01 07:20:10;;;;;;;3.45;2.15;;;16.80;72.00;;;;;;5033156;28;20136;-72
2022/11/01 07:22:36;;;;;;;3.92;2.60;;;16.80;72.00;;;;;;5032299;28;20077;-73
2022/11/01 07:25:04;;;;;;;6.28;2.40;;;16.80;72.00;;;;;;5033660;28;20049;-73
2022/11/01 07:27:30;;;;;;;4.50;2.60;;;16.80;72.00;;;;;;5032564;28;20057;-73
2022/11/01 07:29:57;;;;;;;3.55;2.38;;;16.90;72.00;;;;;;5031617;28;20403;-73
2022/11/01 07:32:24;;;;;;;2.90;2.35;;;16.90;72.00;;;;;;5031642;28;20064;-73
2022/11/01 07:34:50;;;;;;;2.72;2.03;;;16.90;72.00;;;;;;5033242;28;20050;-73
2022/11/01 07:37:18;;;;;;;3.20;2.22;;;16.90;71.90;;;;;;5032879;28;20053;-72
2022/11/01 07:39:45;;;;;;;4.32;2.05;;;16.90;71.80;;;;;;5064531;28;20060;-72
2022/11/01 07:42:12;;;;;;;2.42;2.10;;;17.00;71.80;;;;;;5031494;28;20410;-72
2022/11/01 07:44:40;;;;;;;2.35;1.80;;;17.00;71.80;;;;;;5065150;28;20136;-72
2022/11/01 07:47:07;;;;;;;4.30;1.95;;;17.10;71.70;;;;;;5032443;28;20075;-72
2022/11/01 07:49:34;;;;;;;2.65;1.95;;;17.10;71.70;;;;;;5032544;28;20041;-72
2022/11/01 07:52:03;;;;;;;2.67;1.92;;;17.10;71.60;;;;;;5032676;28;20413;-72
2022/11/01 07:54:31;;;;;;;2.50;1.73;;;17.10;71.60;;;;;;5065619;28;20053;-72
2022/11/01 07:56:57;;;;;;;2.05;1.80;;;17.20;71.50;;;;;;5060241;28;20065;-72
2022/11/01 07:59:24;;;;;;;2.88;1.80;;;17.30;71.50;;;;;;5040031;28;20055;-72
2022/11/01 08:01:51;;;;;;;2.40;1.90;;;17.30;71.40;;;;;;5028932;28;20076;-73
2022/11/01 08:04:17;;;;;;;3.13;1.80;;;17.30;71.40;;;;;;5027872;28;20478;-73
2022/11/01 08:06:44;;;;;;;3.38;2.05;;;17.30;71.30;;;;;;5023929;28;20041;-72
2022/11/01 08:09:11;;;;;;;2.45;1.80;;;17.40;71.20;;;;;;5020607;28;20049;-73
2022/11/01 08:11:39;;;;;;;2.15;1.80;;;17.40;71.20;;;;;;5021460;28;20120;-74
2022/11/01 08:14:06;;;;;;;3.03;1.90;;;17.40;71.10;;;;;;5021973;28;20049;-73
2022/11/01 08:16:32;;;;;;;2.22;1.80;;;17.40;71.10;;;;;;5023432;28;20066;-72
2022/11/01 08:18:59;;;;;;;2.38;1.80;;;17.50;71.10;;;;;;5021828;28;20053;-72
2022/11/01 08:21:26;;;;;;;3.47;1.70;;;17.50;71.10;;;;;;5021158;28;20050;-72
2022/11/01 08:23:53;;;;;;;2.97;1.80;;;17.50;71.00;;;;;;5021136;28;20062;-72
2022/11/01 08:26:19;;;;;;;2.03;1.70;;;17.50;70.90;;;;;;5021990;28;20049;-73
2022/11/01 08:28:47;;;;;;;3.13;1.80;;;17.50;70.90;;;;;;5020429;28;20055;-73
2022/11/01 08:31:14;;;;;;;2.35;1.70;;;17.50;70.90;;;;;;5020240;28;20406;-73
2022/11/01 08:33:41;;;;;;;2.28;1.90;;;17.50;70.90;;;;;;5020850;28;20049;-73
2022/11/01 08:36:07;;;;;;;2.03;1.52;;;17.50;70.80;;;;;;5023512;28;20054;-73
2022/11/01 08:38:34;;;;;;;2.00;1.60;;;17.50;71.30;;;;;;5020958;28;20124;-73
2022/11/01 08:41:01;;;;;;;2.70;1.60;;;17.50;70.80;;;;;;5020781;28;20054;-73
2022/11/01 08:43:28;;;;;;;2.22;1.63;;;17.60;70.80;;;;;;5021469;28;20426;-73
2022/11/01 08:45:57;;;;;;;2.42;1.80;;;17.60;70.80;;;;;;5021266;28;20495;-73
2022/11/01 08:48:24;;;;;;;2.47;1.88;;;17.60;70.70;;;;;;5019968;28;20167;-73
2022/11/01 08:50:51;;;;;;;1.80;1.58;;;17.60;70.80;;;;;;5021240;28;20045;-73
2022/11/01 08:53:18;;;;;;;2.60;1.60;;;17.60;70.70;;;;;;5012310;28;20061;-73
2022/11/01 08:55:45;;;;;;;2.22;1.60;;;17.60;70.70;;;;;;5016862;28;20458;-73
2022/11/01 08:58:11;;;;;;;3.97;1.70;;;17.60;70.60;;;;;;5030574;28;20060;-72
2022/11/01 09:00:38;;;;;;;2.50;1.95;;;17.60;70.60;;;;;;5032250;28;20071;-72
2022/11/01 09:03:06;;;;;;;2.33;1.63;;;17.60;70.60;;;;;;5030572;28;20144;-72
2022/11/01 09:05:33;;;;;;;2.50;1.77;;;17.60;70.70;;;;;;5030745;28;20045;-72
2022/11/01 09:08:00;;;;;;;2.22;1.60;;;17.60;70.80;;;;;;5030496;28;20046;-72
2022/11/01 09:10:27;;;;;;;3.22;1.75;;;17.60;70.80;;;;;;5030709;28;20058;-72
2022/11/01 09:12:54;;;;;;;2.67;1.55;;;17.70;71.10;;;;;;5031705;28;20045;-73
2022/11/01 09:15:21;;;;;;;3.50;1.85;;;17.70;71.10;;;;;;5030627;28;20064;-73
2022/11/01 09:17:47;;;;;;;2.63;1.73;;;17.70;71.20;;;;;;5031799;28;20059;-74
2022/11/01 09:20:17;;;;;;;3.95;1.70;;;17.70;71.20;;;;;;5031064;28;20497;-71
2022/11/01 09:22:44;;;;;;;6.07;1.65;;;17.70;71.20;;;;;;5010153;28;20054;-74
2022/11/01 09:25:11;;;;;;;5.65;2.15;;;17.80;71.20;;;;;;5010969;28;20064;-72
2022/11/01 09:27:38;;;;;;;4.68;2.00;;;17.80;71.40;;;;;;5030288;28;20157;-72
2022/11/01 09:30:05;;;;;;;4.72;2.05;;;17.80;71.70;;;;;;5030111;28;20491;-73
2022/11/01 09:32:32;;;;;;;5.00;2.05;;;17.80;71.80;;;;;;5030506;28;20076;-72
2022/11/01 09:34:59;;;;;;;3.90;1.67;;;17.70;71.80;;;;;;5014332;28;20136;-73
2022/11/01 09:37:27;;;;;;;3.05;1.60;;;17.80;71.90;;;;;;5030216;28;20061;-72
2022/11/01 09:39:54;;;;;;;4.43;1.85;;;17.70;71.80;;;;;;5030680;28;20141;-74
2022/11/01 09:42:23;;;;;;;3.60;1.70;;;17.70;71.80;;;;;;5030156;28;20064;-74
2022/11/01 09:44:50;;;;;;;5.00;2.00;;;17.70;71.80;;;;;;5031524;28;20046;-72
2022/11/01 09:47:18;;;;;;;2.75;1.65;;;17.70;71.80;;;;;;5030100;28;20441;-72
2022/11/01 09:49:46;;;;;;;3.58;1.80;;;17.70;71.80;;;;;;5031534;28;20054;-72
2022/11/01 09:52:16;;;;;;;2.85;1.65;;;17.70;71.70;;;;;;5030298;28;20404;-72
2022/11/01 09:54:44;;;;;;;3.05;1.63;;;17.70;71.70;;;;;;5029849;28;20068;-72
2022/11/01 09:57:15;;;;;;;4.90;1.55;;;17.70;71.60;;;;;;5030099;28;20053;-72
2022/11/01 09:59:45;;;;;;;3.35;1.50;;;17.70;71.60;;;;;;5030491;28;20057;-72
2022/11/01 10:02:29;;;;;;;5.15;1.67;;;17.60;71.60;;;;;;5033702;28;20049;-72
2022/11/01 10:05:06;;;;;;;4.40;1.73;;;17.70;71.50;;;;;;5032562;28;20057;-72
2022/11/01 10:07:37;;;;;;;5.10;2.03;;;17.70;71.50;;;;;;5026148;28;20045;-72
2022/11/01 10:10:10;;;;;;;5.20;1.60;;;17.70;71.50;;;;;;5029913;28;20053;-72
2022/11/01 10:12:45;;;;;;;5.80;1.60;;;17.70;71.50;;;;;;5029970;28;20045;-72
2022/11/01 10:15:24;;;;;;;3.90;1.70;;;17.70;71.40;;;;;;5033213;28;20049;-72
2022/11/01 10:17:52;;;;;;;5.20;1.80;;;17.70;71.40;;;;;;5029339;28;20137;-72
2022/11/01 10:20:20;;;;;;;5.30;1.70;;;17.70;71.40;;;;;;5054629;28;20060;-72
2022/11/01 10:22:48;;;;;;;5.85;1.50;;;17.70;71.30;;;;;;5027300;28;20065;-71
2022/11/01 10:25:20;;;;;;;2.97;1.60;;;17.70;71.30;;;;;;5032936;28;20132;-71
2022/11/01 10:27:51;;;;;;;3.13;1.55;;;17.70;71.30;;;;;;5030031;28;20059;-71
2022/11/01 10:30:17;;;;;;;3.67;1.75;;;17.70;71.30;;;;;;5058209;28;20053;-71
2022/11/01 10:32:47;;;;;;;5.15;1.77;;;17.60;71.20;;;;;;5032603;28;20056;-72
2022/11/01 10:35:15;;;;;;;3.10;1.55;;;17.70;71.30;;;;;;5032747;28;20049;-71
2022/11/01 10:37:44;;;;;;;2.03;1.40;;;17.70;71.20;;;;;;5032693;28;20053;-71
2022/11/01 10:40:12;;;;;;;3.90;1.80;;;17.60;71.20;;;;;;5055439;28;20073;-71
2022/11/01 10:42:42;;;;;;;4.93;2.15;;;17.70;71.30;;;;;;5032021;28;20076;-71
2022/11/01 10:45:11;;;;;;;3.22;1.55;;;17.60;71.20;;;;;;5031800;28;20061;-73
2022/11/01 10:47:41;;;;;;;3.92;1.63;;;17.60;71.20;;;;;;5057036;28;20049;-72
2022/11/01 10:50:13;;;;;;;3.80;1.48;;;17.60;71.30;;;;;;5058344;28;20521;-72
2022/11/01 10:52:48;;;;;;;4.68;1.88;;;17.60;71.30;;;;;;5035400;28;20071;-73
2022/11/01 10:55:18;;;;;;;3.28;1.30;;;17.60;71.30;;;;;;5040971;28;20046;-73
2022/11/01 10:57:48;;;;;;;3.00;1.50;;;17.60;71.30;;;;;;5034581;28;20057;-73
2022/11/01 11:00:16;;;;;;;3.67;1.70;;;17.60;71.30;;;;;;5031813;28;20454;-73
2022/11/01 11:02:44;;;;;;;1.95;1.42;;;17.60;71.30;;;;;;5035087;28;20037;-73
2022/11/01 11:05:13;;;;;;;2.80;1.50;;;17.60;71.30;;;;;;5033626;28;20052;-72
2022/11/01 11:07:39;;;;;;;4.47;1.60;;;17.60;71.30;;;;;;5032615;28;20052;-72
2022/11/01 11:10:11;;;;;;;3.78;1.35;;;17.60;71.30;;;;;;5033185;28;20053;-73
2022/11/01 11:12:38;;;;;;;5.45;1.70;;;17.60;71.30;;;;;;5031218;28;20124;-73
2022/11/01 11:15:15;;;;;;;4.50;1.65;;;17.60;71.30;;;;;;5050296;28;20041;-73
2022/11/01 11:17:43;;;;;;;2.70;1.40;;;17.60;71.30;;;;;;5052334;28;20057;-73
2022/11/01 11:20:11;;;;;;;2.20;1.52;;;17.60;71.30;;;;;;5047209;28;20078;-73
2022/11/01 11:22:39;;;;;;;5.25;1.98;;;17.60;71.30;;;;;;5042567;28;20269;-73
2022/11/01 11:25:07;;;;;;;4.43;1.40;;;17.60;71.20;;;;;;5041457;28;20107;-73
2022/11/01 11:27:34;;;;;;;3.88;1.60;;;17.60;71.20;;;;;;5040127;28;20057;-73
2022/11/01 11:30:03;;;;;;;4.65;1.90;;;17.60;71.20;;;;;;5038143;28;20060;-73
2022/11/01 11:32:32;;;;;;;3.55;1.70;;;17.60;71.20;;;;;;5027283;28;20152;-73
2022/11/01 11:35:01;;;;;;;4.80;1.80;;;17.60;71.20;;;;;;5054526;28;20136;-73
2022/11/01 11:37:29;;;;;;;3.45;1.60;;;17.60;71.30;;;;;;5018546;28;20049;-73
2022/11/01 11:40:18;;;;;;;3.47;1.40;;;17.60;71.30;;;;;;5013457;28;20050;-72
2022/11/01 11:42:45;;;;;;;4.20;1.70;;;17.60;71.20;;;;;;5009594;28;20054;-72
2022/11/01 11:45:21;;;;;;;5.43;1.80;;;17.60;71.40;;;;;;5012241;28;20140;-73
2022/11/01 11:47:49;;;;;;;3.50;1.70;;;17.60;71.40;;;;;;5029618;28;20077;-73
2022/11/01 11:50:38;;;;;;;3.50;1.65;;;17.60;71.40;;;;;;5032820;28;20118;-73
2022/11/01 11:53:07;;;;;;;2.70;1.50;;;17.60;71.50;;;;;;5031400;28;20045;-74
2022/11/01 11:55:40;;;;;;;5.07;1.38;;;17.60;71.50;;;;;;5032909;28;20084;-74
2022/11/01 11:58:18;;;;;;;3.72;1.67;;;17.60;71.40;;;;;;5032443;28;20053;-73
2022/11/01 12:00:47;;;;;;;4.10;1.40;;;17.60;71.40;;;;;;5031578;28;20067;-73
2022/11/01 12:03:16;;;;;;;4.47;1.58;;;17.60;71.50;;;;;;5032716;28;20637;-75
2022/11/01 12:05:51;;;;;;;5.80;2.47;;;17.60;71.50;;;;;;5031898;28;20085;-73
2022/11/01 12:08:25;;;;;;;5.40;2.53;;;17.60;71.40;;;;;;5022613;28;20064;-73
2022/11/01 12:10:56;;;;;;;6.32;2.50;;;17.60;71.40;;;;;;5044743;28;20141;-74
2022/11/01 12:13:25;;;;;;;11.07;3.55;;;17.60;71.40;;;;;;5040918;28;20128;-73
2022/11/01 12:16:06;;;;;;;7.85;2.83;;;17.60;71.30;;;;;;5046441;28;20061;-73
2022/11/01 12:18:34;;;;;;;8.98;3.60;;;17.60;71.20;;;;;;5028578;28;20055;-74
2022/11/01 12:21:00;;;;;;;14.48;4.22;;;17.60;71.20;;;;;;5027684;28;20049;-74
2022/11/01 12:23:30;;;;;;;20.67;5.05;;;17.60;71.30;;;;;;5013210;28;20133;-73
2022/11/01 12:25:57;;;;;;;13.88;4.15;;;17.60;71.30;;;;;;5035445;28;20136;-73
2022/11/01 12:28:26;;;;;;;22.75;5.38;;;17.60;71.30;;;;;;5042104;28;20064;-73
2022/11/01 12:30:56;;;;;;;17.80;4.65;;;17.60;71.30;;;;;;5016931;28;20056;-73
2022/11/01 12:33:24;;;;;;;21.40;5.70;;;17.60;71.80;;;;;;5031442;28;20056;-73
2022/11/01 12:35:53;;;;;;;19.40;5.28;;;17.60;71.30;;;;;;5032086;28;20446;-73
2022/11/01 12:38:35;;;;;;;19.08;5.00;;;17.60;71.30;;;;;;5031358;28;20053;-74
2022/11/01 12:41:09;;;;;;;14.75;5.10;;;17.60;71.30;;;;;;5031142;28;20506;-73
2022/11/01 12:43:37;;;;;;;15.27;4.55;;;17.60;71.40;;;;;;5030874;28;20049;-74
2022/11/01 12:46:06;;;;;;;15.45;4.82;;;17.60;71.40;;;;;;5030981;28;20155;-72
2022/11/01 12:48:34;;;;;;;15.65;4.30;;;17.60;71.40;;;;;;5031079;28;20136;-73
2022/11/01 12:51:04;;;;;;;20.98;4.60;;;17.60;71.40;;;;;;5030890;28;20487;-73
2022/11/01 12:53:34;;;;;;;20.15;4.55;;;17.60;71.40;;;;;;5032161;28;20153;-73
2022/11/01 12:56:00;;;;;;;14.15;4.10;;;17.60;71.30;;;;;;5030819;28;20053;-73
2022/11/01 12:58:27;;;;;;;14.10;4.22;;;17.60;71.30;;;;;;5030903;28;20405;-73
2022/11/01 13:01:20;;;;;;;11.80;4.13;;;17.60;71.40;;;;;;5030691;28;20140;-73